createdAt,value
2023-09-08T00:00:57.234Z,823.81
2023-09-08T00:01:57.238Z,823.78
2023-09-08T00:02:57.293Z,823.76
2023-09-08T00:03:57.341Z,823.77
2023-09-08T00:04:57.269Z,823.75
2023-09-08T00:05:57.289Z,823.76
2023-09-08T00:06:57.314Z,823.78
2023-09-08T00:07:57.328Z,823.74
2023-09-08T00:08:57.360Z,823.70
2023-09-08T00:09:57.367Z,823.74
2023-09-08T00:10:57.376Z,823.69
2023-09-08T00:11:57.530Z,823.71
2023-09-08T00:12:57.407Z,823.72
2023-09-08T00:13:57.431Z,823.71
2023-09-08T00:14:57.442Z,823.69
2023-09-08T00:15:57.614Z,823.68
2023-09-08T00:16:57.538Z,823.70
2023-09-08T00:17:57.522Z,823.69
2023-09-08T00:18:57.516Z,823.67
2023-09-08T00:19:57.536Z,823.67
2023-09-08T00:20:57.560Z,823.64
2023-09-08T00:21:57.574Z,823.62
2023-09-08T00:22:57.608Z,823.66
2023-09-08T00:23:57.617Z,823.62
2023-09-08T00:24:57.625Z,823.62
2023-09-08T00:25:57.655Z,823.62
2023-09-08T00:26:57.667Z,823.64
2023-09-08T00:27:57.696Z,823.65
2023-09-08T00:28:57.705Z,823.59
2023-09-08T00:29:57.768Z,823.64
2023-09-08T00:30:57.736Z,823.62
2023-09-08T00:31:57.867Z,823.62
2023-09-08T00:32:57.978Z,823.59
2023-09-08T00:33:57.901Z,823.58
2023-09-08T00:34:57.886Z,823.59
2023-09-08T00:35:57.831Z,823.60
2023-09-08T00:36:57.842Z,823.60
2023-09-08T00:37:57.887Z,823.60
2023-09-08T00:38:57.882Z,823.56
2023-09-08T00:39:57.898Z,823.59
2023-09-08T00:40:57.942Z,823.60
2023-09-08T00:41:57.943Z,823.57
2023-09-08T00:42:57.956Z,823.57
2023-09-08T00:43:57.975Z,823.57
2023-09-08T00:44:57.993Z,823.59
2023-09-08T00:45:58.084Z,823.58
2023-09-08T00:46:58.038Z,823.61
2023-09-08T00:47:58.180Z,823.59
2023-09-08T00:48:58.089Z,823.60
2023-09-08T00:49:58.081Z,823.57
2023-09-08T00:50:58.102Z,823.58
2023-09-08T00:51:58.124Z,823.54
2023-09-08T00:52:58.138Z,823.58
2023-09-08T00:53:58.192Z,823.59
2023-09-08T00:54:58.170Z,823.55
2023-09-08T00:55:58.190Z,823.60
2023-09-08T00:56:58.206Z,823.56
2023-09-08T00:57:58.233Z,823.60
2023-09-08T00:58:58.246Z,823.61
2023-09-08T00:59:58.262Z,823.58
2023-09-08T01:00:58.296Z,823.57
2023-09-08T01:01:58.297Z,823.60
2023-09-08T01:02:58.403Z,823.63
2023-09-08T01:03:58.488Z,823.59
2023-09-08T01:04:58.454Z,823.59
2023-09-08T01:05:58.471Z,823.55
2023-09-08T01:06:58.391Z,823.55
2023-09-08T01:07:58.409Z,823.55
2023-09-08T01:08:58.460Z,823.55
2023-09-08T01:09:58.461Z,823.51
2023-09-08T01:10:58.460Z,823.54
2023-09-08T01:11:58.532Z,823.52
2023-09-08T01:12:58.500Z,823.52
2023-09-08T01:13:58.516Z,823.52
2023-09-08T01:14:58.569Z,823.52
2023-09-08T01:15:58.648Z,823.48
2023-09-08T01:16:58.606Z,823.49
2023-09-08T01:17:58.629Z,823.48
2023-09-08T01:18:58.743Z,823.53
2023-09-08T01:19:58.626Z,823.51
2023-09-08T01:20:58.670Z,823.47
2023-09-08T01:21:58.656Z,823.48
2023-09-08T01:22:58.677Z,823.48
2023-09-08T01:23:58.697Z,823.47
2023-09-08T01:24:58.709Z,823.44
2023-09-08T01:25:58.733Z,823.44
2023-09-08T01:26:58.762Z,823.45
2023-09-08T01:27:58.796Z,823.41
2023-09-08T01:28:58.782Z,823.43
2023-09-08T01:29:58.802Z,823.47
2023-09-08T01:30:58.900Z,823.46
2023-09-08T01:31:58.930Z,823.45
2023-09-08T01:32:59.095Z,823.47
2023-09-08T01:33:58.915Z,823.45
2023-09-08T01:34:58.890Z,823.41
2023-09-08T01:35:58.916Z,823.40
2023-09-08T01:36:58.960Z,823.38
2023-09-08T01:37:58.944Z,823.39
2023-09-08T01:38:59.034Z,823.37
2023-09-08T01:39:58.992Z,823.37
2023-09-08T01:40:59.004Z,823.38
2023-09-08T01:41:59.023Z,823.32
2023-09-08T01:42:59.050Z,823.30
2023-09-08T01:43:59.063Z,823.29
2023-09-08T01:44:59.072Z,823.31
2023-09-08T01:45:59.125Z,823.32
2023-09-08T01:46:59.104Z,823.29
2023-09-08T01:47:59.147Z,823.30
2023-09-08T01:48:59.232Z,823.28
2023-09-08T01:49:59.158Z,823.29
2023-09-08T01:50:59.197Z,823.29
2023-09-08T01:51:59.228Z,823.30
2023-09-08T01:52:59.230Z,823.27
2023-09-08T01:53:59.231Z,823.28
2023-09-08T01:54:59.281Z,823.26
2023-09-08T01:55:59.272Z,823.22
2023-09-08T01:56:59.296Z,823.23
2023-09-08T01:57:59.335Z,823.24
2023-09-08T01:58:59.319Z,823.20
2023-09-08T01:59:59.335Z,823.23
2023-09-08T02:00:59.391Z,823.20
2023-09-08T02:01:59.404Z,823.22
2023-09-08T02:02:59.453Z,823.24
2023-09-08T02:03:59.408Z,823.18
2023-09-08T02:04:59.529Z,823.20
2023-09-08T02:05:59.449Z,823.18
2023-09-08T02:06:59.481Z,823.19
2023-09-08T02:07:59.531Z,823.18
2023-09-08T02:08:59.516Z,823.19
2023-09-08T02:09:59.520Z,823.16
2023-09-08T02:10:59.548Z,823.15
2023-09-08T02:11:59.560Z,823.15
2023-09-08T02:12:59.570Z,823.15
2023-09-08T02:13:59.609Z,823.10
2023-09-08T02:14:59.732Z,823.14
2023-09-08T02:15:59.716Z,823.11
2023-09-08T02:16:59.636Z,823.15
2023-09-08T02:17:59.697Z,823.12
2023-09-08T02:18:59.697Z,823.15
2023-09-08T02:19:59.700Z,823.14
2023-09-08T02:20:59.732Z,823.13
2023-09-08T02:21:59.757Z,823.12
2023-09-08T02:22:59.758Z,823.13
2023-09-08T02:23:59.813Z,823.15
2023-09-08T02:24:59.803Z,823.13
2023-09-08T02:25:59.801Z,823.12
2023-09-08T02:26:59.836Z,823.13
2023-09-08T02:27:59.851Z,823.12
2023-09-08T02:28:59.850Z,823.11
2023-09-08T02:29:59.894Z,823.08
2023-09-08T02:30:59.886Z,823.10
2023-09-08T02:31:59.931Z,823.10
2023-09-08T02:32:59.986Z,823.08
2023-09-08T02:33:59.945Z,823.09
2023-09-08T02:34:59.969Z,823.08
2023-09-08T02:35:59.974Z,823.08
2023-09-08T02:37:00.029Z,823.08
2023-09-08T02:38:00.021Z,823.10
2023-09-08T02:39:00.035Z,823.11
2023-09-08T02:40:00.048Z,823.09
2023-09-08T02:41:00.082Z,823.10
2023-09-08T02:42:00.090Z,823.09
2023-09-08T02:43:00.099Z,823.11
2023-09-08T02:44:00.143Z,823.08
2023-09-08T02:45:00.190Z,823.08
2023-09-08T02:46:00.266Z,823.13
2023-09-08T02:47:00.170Z,823.11
2023-09-08T02:48:00.295Z,823.09
2023-09-08T02:49:00.344Z,823.09
2023-09-08T02:50:00.226Z,823.13
2023-09-08T02:51:00.255Z,823.08
2023-09-08T02:52:00.293Z,823.09
2023-09-08T02:53:00.295Z,823.07
2023-09-08T02:54:00.297Z,823.09
2023-09-08T02:55:00.310Z,823.08
2023-09-08T02:56:00.337Z,823.08
2023-09-08T02:57:00.380Z,823.10
2023-09-08T02:58:00.364Z,823.09
2023-09-08T02:59:00.398Z,823.08
2023-09-08T03:00:00.420Z,823.09
2023-09-08T03:01:00.413Z,823.09
2023-09-08T03:02:00.525Z,823.10
2023-09-08T03:03:00.532Z,823.07
2023-09-08T03:04:00.522Z,823.04
2023-09-08T03:05:00.565Z,823.05
2023-09-08T03:06:00.507Z,823.05
2023-09-08T03:07:00.540Z,823.09
2023-09-08T03:08:00.592Z,823.05
2023-09-08T03:09:00.563Z,823.04
2023-09-08T03:10:00.624Z,823.06
2023-09-08T03:11:00.595Z,823.05
2023-09-08T03:12:00.651Z,823.05
2023-09-08T03:13:00.650Z,823.06
2023-09-08T03:14:00.740Z,823.04
2023-09-08T03:15:00.667Z,823.02
2023-09-08T03:16:00.697Z,823.05
2023-09-08T03:17:00.751Z,823.03
2023-09-08T03:18:00.755Z,823.03
2023-09-08T03:19:00.733Z,823.03
2023-09-08T03:20:00.783Z,823.05
2023-09-08T03:21:00.775Z,823.05
2023-09-08T03:22:00.808Z,823.02
2023-09-08T03:23:00.930Z,823.06
2023-09-08T03:24:00.833Z,823.03
2023-09-08T03:25:00.842Z,823.06
2023-09-08T03:26:00.862Z,823.05
2023-09-08T03:27:01.054Z,823.06
2023-09-08T03:28:00.894Z,823.05
2023-09-08T03:29:00.971Z,823.06
2023-09-08T03:30:00.937Z,823.09
2023-09-08T03:31:00.965Z,823.06
2023-09-08T03:32:01.113Z,823.06
2023-09-08T03:33:01.083Z,823.07
2023-09-08T03:34:01.143Z,823.07
2023-09-08T03:35:01.021Z,823.07
2023-09-08T03:36:01.031Z,823.12
2023-09-08T03:37:01.049Z,823.06
2023-09-08T03:38:01.067Z,823.07
2023-09-08T03:39:01.087Z,823.04
2023-09-08T03:40:01.147Z,823.04
2023-09-08T03:41:01.118Z,823.00
2023-09-08T03:42:01.143Z,823.01
2023-09-08T03:43:01.197Z,823.01
2023-09-08T03:44:01.168Z,822.99
2023-09-08T03:45:01.206Z,822.94
2023-09-08T03:46:01.270Z,822.96
2023-09-08T03:47:03.914Z,822.99
2023-09-08T03:48:01.252Z,822.97
2023-09-08T03:49:01.262Z,822.99
2023-09-08T03:50:01.332Z,822.97
2023-09-08T03:51:01.289Z,822.96
2023-09-08T03:52:01.303Z,822.99
2023-09-08T03:53:01.397Z,822.99
2023-09-08T03:54:01.353Z,822.99
2023-09-08T03:55:01.398Z,822.95
2023-09-08T03:56:01.423Z,822.98
2023-09-08T03:57:01.394Z,822.99
2023-09-08T03:58:01.412Z,822.99
2023-09-08T03:59:01.489Z,822.96
2023-09-08T04:00:01.441Z,822.96
2023-09-08T04:01:01.521Z,822.96
2023-09-08T04:02:01.532Z,822.96
2023-09-08T04:03:01.642Z,822.94
2023-09-08T04:04:01.642Z,822.91
2023-09-08T04:05:01.587Z,822.92
2023-09-08T04:06:01.550Z,822.94
2023-09-08T04:07:01.597Z,822.95
2023-09-08T04:08:01.576Z,822.88
2023-09-08T04:09:01.611Z,822.88
2023-09-08T04:10:01.612Z,822.92
2023-09-08T04:11:01.729Z,822.91
2023-09-08T04:12:01.692Z,822.93
2023-09-08T04:13:01.669Z,822.92
2023-09-08T04:14:01.678Z,822.91
2023-09-08T04:15:01.835Z,822.88
2023-09-08T04:16:01.768Z,822.90
2023-09-08T04:17:01.760Z,822.90
2023-09-08T04:18:01.858Z,822.90
2023-09-08T04:19:01.789Z,822.88
2023-09-08T04:20:01.788Z,822.85
2023-09-08T04:21:01.832Z,822.85
2023-09-08T04:22:01.821Z,822.87
2023-09-08T04:23:01.833Z,822.86
2023-09-08T04:24:01.912Z,822.86
2023-09-08T04:25:01.882Z,822.83
2023-09-08T04:26:01.882Z,822.86
2023-09-08T04:27:01.959Z,822.86
2023-09-08T04:28:01.918Z,822.83
2023-09-08T04:29:01.936Z,822.88
2023-09-08T04:30:02.008Z,822.86
2023-09-08T04:31:02.007Z,822.83
2023-09-08T04:32:01.987Z,822.86
2023-09-08T04:33:02.116Z,822.90
2023-09-08T04:34:02.057Z,822.85
2023-09-08T04:35:02.051Z,822.86
2023-09-08T04:36:02.075Z,822.89
2023-09-08T04:37:02.129Z,822.86
2023-09-08T04:38:04.516Z,822.84
2023-09-08T04:39:02.108Z,822.87
2023-09-08T04:40:02.128Z,822.89
2023-09-08T04:41:02.144Z,822.89
2023-09-08T04:42:02.175Z,822.86
2023-09-08T04:43:02.177Z,822.89
2023-09-08T04:44:02.196Z,822.88
2023-09-08T04:45:02.219Z,822.90
2023-09-08T04:46:02.245Z,822.86
2023-09-08T04:47:02.282Z,822.88
2023-09-08T04:48:02.384Z,822.86
2023-09-08T04:49:02.316Z,822.90
2023-09-08T04:50:02.421Z,822.89
2023-09-08T04:51:02.318Z,822.87
2023-09-08T04:52:02.337Z,822.87
2023-09-08T04:53:02.350Z,822.88
2023-09-08T04:54:02.362Z,822.86
2023-09-08T04:55:02.410Z,822.86
2023-09-08T04:56:02.396Z,822.89
2023-09-08T04:57:16.066Z,822.95
2023-09-08T04:58:02.433Z,822.97
2023-09-08T04:59:02.449Z,822.94
2023-09-08T05:00:02.464Z,822.98
2023-09-08T05:01:02.523Z,822.97
2023-09-08T05:02:02.502Z,822.97
2023-09-08T05:03:02.707Z,822.96
2023-09-08T05:04:02.610Z,823.00
2023-09-08T05:05:02.629Z,822.96
2023-09-08T05:06:02.579Z,823.00
2023-09-08T05:07:02.586Z,822.99
2023-09-08T05:08:02.607Z,823.01
2023-09-08T05:09:02.664Z,823.01
2023-09-08T05:10:02.653Z,823.01
2023-09-08T05:11:02.668Z,823.01
2023-09-08T05:12:02.685Z,823.01
2023-09-08T05:13:02.885Z,823.03
2023-09-08T05:14:02.702Z,823.00
2023-09-08T05:15:02.800Z,822.98
2023-09-08T05:16:02.740Z,822.97
2023-09-08T05:17:02.759Z,822.99
2023-09-08T05:18:02.992Z,822.99
2023-09-08T05:19:02.827Z,823.01
2023-09-08T05:20:02.830Z,822.98
2023-09-08T05:21:02.849Z,823.00
2023-09-08T05:22:02.846Z,823.03
2023-09-08T05:23:02.860Z,823.01
2023-09-08T05:24:02.873Z,822.97
2023-09-08T05:25:03.075Z,823.01
2023-09-08T05:26:02.914Z,823.02
2023-09-08T05:27:02.926Z,823.01
2023-09-08T05:28:02.957Z,823.03
2023-09-08T05:29:02.963Z,823.04
2023-09-08T05:30:02.990Z,823.03
2023-09-08T05:31:03.014Z,823.07
2023-09-08T05:32:03.011Z,823.06
2023-09-08T05:33:03.085Z,823.03
2023-09-08T05:34:03.068Z,823.01
2023-09-08T05:35:03.076Z,823.07
2023-09-08T05:36:03.091Z,823.07
2023-09-08T05:37:03.186Z,823.07
2023-09-08T05:38:03.111Z,823.06
2023-09-08T05:39:03.131Z,823.07
2023-09-08T05:40:03.260Z,823.08
2023-09-08T05:41:03.162Z,823.08
2023-09-08T05:42:03.193Z,823.08
2023-09-08T05:43:03.231Z,823.08
2023-09-08T05:44:03.228Z,823.08
2023-09-08T05:45:03.234Z,823.10
2023-09-08T05:46:03.320Z,823.10
2023-09-08T05:47:03.405Z,823.08
2023-09-08T05:48:03.378Z,823.08
2023-09-08T05:49:03.326Z,823.09
2023-09-08T05:50:03.317Z,823.11
2023-09-08T05:51:03.355Z,823.12
2023-09-08T05:52:03.389Z,823.15
2023-09-08T05:53:03.398Z,823.14
2023-09-08T05:54:03.391Z,823.15
2023-09-08T05:55:04.197Z,823.16
2023-09-08T05:56:03.435Z,823.15
2023-09-08T05:57:03.434Z,823.15
2023-09-08T05:58:03.455Z,823.16
2023-09-08T05:59:03.465Z,823.15
2023-09-08T06:00:03.560Z,823.14
2023-09-08T06:01:03.498Z,823.11
2023-09-08T06:02:03.572Z,823.11
2023-09-08T06:03:03.665Z,823.13
2023-09-08T06:04:03.722Z,823.17
2023-09-08T06:05:03.576Z,823.14
2023-09-08T06:06:03.597Z,823.13
2023-09-08T06:07:03.651Z,823.14
2023-09-08T06:08:07.655Z,823.18
2023-09-08T06:09:03.650Z,823.16
2023-09-08T06:10:03.651Z,823.16
2023-09-08T06:11:03.754Z,823.17
2023-09-08T06:12:03.693Z,823.15
2023-09-08T06:13:03.722Z,823.15
2023-09-08T06:14:03.743Z,823.14
2023-09-08T06:15:03.753Z,823.14
2023-09-08T06:16:03.761Z,823.14
2023-09-08T06:17:03.769Z,823.12
2023-09-08T06:18:03.812Z,823.14
2023-09-08T06:19:03.817Z,823.18
2023-09-08T06:20:03.842Z,823.12
2023-09-08T06:21:03.909Z,823.14
2023-09-08T06:22:03.960Z,823.15
2023-09-08T06:23:03.892Z,823.16
2023-09-08T06:24:03.913Z,823.15
2023-09-08T06:25:03.927Z,823.16
2023-09-08T06:26:03.925Z,823.19
2023-09-08T06:27:03.966Z,823.20
2023-09-08T06:28:03.969Z,823.16
2023-09-08T06:29:03.991Z,823.13
2023-09-08T06:30:03.988Z,823.12
2023-09-08T06:31:04.049Z,823.13
2023-09-08T06:32:04.036Z,823.11
2023-09-08T06:33:04.151Z,823.13
2023-09-08T06:34:04.201Z,823.15
2023-09-08T06:35:04.075Z,823.14
2023-09-08T06:36:04.090Z,823.11
2023-09-08T06:37:04.104Z,823.12
2023-09-08T06:38:04.130Z,823.13
2023-09-08T06:39:04.146Z,823.11
2023-09-08T06:40:04.159Z,823.10
2023-09-08T06:41:04.255Z,823.11
2023-09-08T06:42:04.193Z,823.09
2023-09-08T06:43:04.296Z,823.11
2023-09-08T06:44:04.228Z,823.09
2023-09-08T06:45:04.247Z,823.11
2023-09-08T06:46:04.298Z,823.08
2023-09-08T06:47:04.280Z,823.07
2023-09-08T06:48:04.412Z,823.09
2023-09-08T06:49:05.385Z,823.12
2023-09-08T06:50:04.414Z,823.13
2023-09-08T06:51:04.450Z,823.12
2023-09-08T06:52:04.418Z,823.12
2023-09-08T06:53:04.384Z,823.14
2023-09-08T06:54:04.495Z,823.15
2023-09-08T06:55:04.432Z,823.14
2023-09-08T06:56:04.442Z,823.15
2023-09-08T06:57:04.502Z,823.18
2023-09-08T06:58:04.531Z,823.18
2023-09-08T06:59:04.486Z,823.17
2023-09-08T07:00:04.511Z,823.17
2023-09-08T07:01:04.579Z,823.18
2023-09-08T07:02:04.624Z,823.19
2023-09-08T07:03:04.751Z,823.16
2023-09-08T07:04:04.701Z,823.15
2023-09-08T07:05:04.700Z,823.19
2023-09-08T07:06:04.610Z,823.19
2023-09-08T07:07:04.656Z,823.19
2023-09-08T07:08:04.639Z,823.18
2023-09-08T07:09:04.653Z,823.18
2023-09-08T07:10:04.691Z,823.19
2023-09-08T07:11:04.712Z,823.21
2023-09-08T07:12:04.704Z,823.18
2023-09-08T07:13:04.791Z,823.21
2023-09-08T07:14:04.740Z,823.19
2023-09-08T07:15:04.760Z,823.23
2023-09-08T07:16:04.910Z,823.21
2023-09-08T07:17:04.871Z,823.22
2023-09-08T07:18:06.283Z,823.26
2023-09-08T07:19:04.962Z,823.23
2023-09-08T07:20:04.855Z,823.27
2023-09-08T07:21:04.861Z,823.21
2023-09-08T07:22:04.883Z,823.23
2023-09-08T07:23:04.927Z,823.24
2023-09-08T07:24:04.917Z,823.22
2023-09-08T07:25:04.957Z,823.25
2023-09-08T07:26:04.962Z,823.24
2023-09-08T07:27:04.970Z,823.23
2023-09-08T07:28:05.085Z,823.28
2023-09-08T07:29:05.039Z,823.27
2023-09-08T07:30:05.064Z,823.22
2023-09-08T07:31:05.149Z,823.23
2023-09-08T07:32:05.087Z,823.24
2023-09-08T07:33:05.146Z,823.24
2023-09-08T07:34:05.088Z,823.24
2023-09-08T07:35:05.099Z,823.25
2023-09-08T07:36:05.150Z,823.24
2023-09-08T07:37:05.136Z,823.28
2023-09-08T07:38:05.157Z,823.22
2023-09-08T07:39:05.173Z,823.24
2023-09-08T07:40:05.194Z,823.21
2023-09-08T07:41:05.221Z,823.26
2023-09-08T07:42:05.230Z,823.24
2023-09-08T07:43:05.312Z,823.24
2023-09-08T07:44:05.319Z,823.28
2023-09-08T07:45:05.323Z,823.25
2023-09-08T07:46:05.334Z,823.23
2023-09-08T07:47:05.316Z,823.27
2023-09-08T07:48:05.405Z,823.24
2023-09-08T07:49:05.352Z,823.26
2023-09-08T07:50:05.387Z,823.23
2023-09-08T07:51:05.400Z,823.23
2023-09-08T07:52:05.406Z,823.23
2023-09-08T07:53:05.552Z,823.24
2023-09-08T07:54:05.554Z,823.26
2023-09-08T07:55:05.476Z,823.24
2023-09-08T07:56:05.733Z,823.25
2023-09-08T07:57:05.505Z,823.25
2023-09-08T07:58:05.516Z,823.28
2023-09-08T07:59:05.542Z,823.24
2023-09-08T08:00:05.547Z,823.21
2023-09-08T08:01:05.624Z,823.22
2023-09-08T08:02:05.578Z,823.24
2023-09-08T08:03:05.616Z,823.25
2023-09-08T08:04:05.700Z,823.24
2023-09-08T08:05:05.641Z,823.26
2023-09-08T08:06:05.725Z,823.22
2023-09-08T08:07:05.664Z,823.22
2023-09-08T08:08:05.693Z,823.22
2023-09-08T08:09:05.801Z,823.20
2023-09-08T08:10:05.718Z,823.24
2023-09-08T08:11:05.732Z,823.24
2023-09-08T08:12:05.759Z,823.17
2023-09-08T08:13:05.785Z,823.23
2023-09-08T08:14:05.793Z,823.23
2023-09-08T08:15:05.875Z,823.21
2023-09-08T08:16:05.853Z,823.24
2023-09-08T08:17:05.932Z,823.26
2023-09-08T08:18:05.979Z,823.22
2023-09-08T08:19:05.946Z,823.25
2023-09-08T08:20:05.927Z,823.26
2023-09-08T08:21:05.933Z,823.24
2023-09-08T08:22:05.929Z,823.26
2023-09-08T08:23:05.951Z,823.27
2023-09-08T08:24:05.990Z,823.25
2023-09-08T08:25:05.992Z,823.27
2023-09-08T08:26:06.006Z,823.23
2023-09-08T08:27:06.066Z,823.25
2023-09-08T08:28:06.057Z,823.24
2023-09-08T08:29:06.070Z,823.24
2023-09-08T08:30:06.075Z,823.23
2023-09-08T08:31:06.206Z,823.29
2023-09-08T08:32:06.115Z,823.28
2023-09-08T08:33:06.179Z,823.31
2023-09-08T08:34:06.248Z,823.29
2023-09-08T08:35:06.164Z,823.30
2023-09-08T08:36:06.302Z,823.33
2023-09-08T08:37:06.200Z,823.33
2023-09-08T08:38:06.220Z,823.32
2023-09-08T08:39:06.235Z,823.31
2023-09-08T08:40:06.255Z,823.31
2023-09-08T08:41:06.277Z,823.34
2023-09-08T08:42:06.304Z,823.35
2023-09-08T08:43:06.312Z,823.34
2023-09-08T08:44:06.336Z,823.34
2023-09-08T08:45:06.413Z,823.34
2023-09-08T08:46:06.391Z,823.35
2023-09-08T08:47:06.393Z,823.33
2023-09-08T08:48:06.458Z,823.38
2023-09-08T08:49:06.453Z,823.36
2023-09-08T08:50:06.455Z,823.34
2023-09-08T08:51:06.453Z,823.35
2023-09-08T08:52:06.475Z,823.38
2023-09-08T08:53:06.494Z,823.36
2023-09-08T08:54:06.533Z,823.35
2023-09-08T08:55:06.538Z,823.35
2023-09-08T08:56:06.546Z,823.35
2023-09-08T08:57:06.612Z,823.36
2023-09-08T08:58:06.587Z,823.32
2023-09-08T08:59:06.602Z,823.37
2023-09-08T09:00:06.645Z,823.35
2023-09-08T09:01:06.640Z,823.35
2023-09-08T09:02:06.678Z,823.32
2023-09-08T09:03:14.974Z,823.30
2023-09-08T09:04:06.759Z,823.29
2023-09-08T09:05:06.738Z,823.28
2023-09-08T09:06:06.757Z,823.30
2023-09-08T09:07:06.761Z,823.30
2023-09-08T09:08:06.778Z,823.33
2023-09-08T09:09:06.792Z,823.26
2023-09-08T09:10:06.807Z,823.26
2023-09-08T09:11:06.851Z,823.26
2023-09-08T09:12:06.845Z,823.29
2023-09-08T09:13:06.862Z,823.25
2023-09-08T09:14:06.889Z,823.27
2023-09-08T09:15:06.916Z,823.29
2023-09-08T09:16:07.029Z,823.26
2023-09-08T09:17:06.942Z,823.28
2023-09-08T09:18:07.114Z,823.26
2023-09-08T09:19:06.977Z,823.23
2023-09-08T09:20:07.001Z,823.25
2023-09-08T09:21:07.037Z,823.24
2023-09-08T09:22:07.059Z,823.24
2023-09-08T09:23:07.065Z,823.22
2023-09-08T09:24:07.112Z,823.22
2023-09-08T09:25:07.180Z,823.22
2023-09-08T09:26:07.199Z,823.22
2023-09-08T09:27:07.226Z,823.24
2023-09-08T09:28:07.153Z,823.24
2023-09-08T09:29:07.166Z,823.23
2023-09-08T09:30:07.195Z,823.26
2023-09-08T09:31:07.230Z,823.22
2023-09-08T09:32:07.322Z,823.24
2023-09-08T09:33:07.251Z,823.25
2023-09-08T09:34:07.334Z,823.22
2023-09-08T09:35:07.302Z,823.23
2023-09-08T09:36:07.299Z,823.21
2023-09-08T09:37:07.335Z,823.24
2023-09-08T09:38:07.337Z,823.26
2023-09-08T09:39:07.356Z,823.27
2023-09-08T09:40:07.459Z,823.28
2023-09-08T09:41:07.410Z,823.27
2023-09-08T09:42:07.413Z,823.31
2023-09-08T09:43:07.486Z,823.28
2023-09-08T09:44:07.457Z,823.28
2023-09-08T09:45:07.472Z,823.25
2023-09-08T09:46:07.613Z,823.26
2023-09-08T09:47:07.636Z,823.25
2023-09-08T09:48:07.622Z,823.22
2023-09-08T09:49:07.819Z,823.22
2023-09-08T09:50:07.572Z,823.21
2023-09-08T09:51:07.583Z,823.20
2023-09-08T09:52:07.607Z,823.19
2023-09-08T09:53:07.726Z,823.19
2023-09-08T09:54:07.660Z,823.23
2023-09-08T09:55:07.671Z,823.19
2023-09-08T09:56:07.712Z,823.19
2023-09-08T09:57:07.717Z,823.23
2023-09-08T09:58:07.738Z,823.21
2023-09-08T09:59:07.747Z,823.22
2023-09-08T10:00:07.779Z,823.18
2023-09-08T10:01:07.787Z,823.20
2023-09-08T10:02:07.814Z,823.24
2023-09-08T10:03:08.020Z,823.23
2023-09-08T10:04:07.852Z,823.24
2023-09-08T10:05:07.861Z,823.23
2023-09-08T10:06:07.992Z,823.20
2023-09-08T10:07:07.899Z,823.22
2023-09-08T10:08:07.926Z,823.21
2023-09-08T10:09:07.967Z,823.22
2023-09-08T10:10:07.966Z,823.22
2023-09-08T10:11:07.997Z,823.25
2023-09-08T10:12:08.071Z,823.21
2023-09-08T10:13:08.128Z,823.18
2023-09-08T10:14:08.056Z,823.18
2023-09-08T10:15:08.107Z,823.17
2023-09-08T10:16:08.094Z,823.18
2023-09-08T10:17:08.109Z,823.20
2023-09-08T10:18:08.224Z,823.21
2023-09-08T10:19:08.180Z,823.19
2023-09-08T10:20:08.182Z,823.19
2023-09-08T10:21:08.206Z,823.17
2023-09-08T10:22:08.229Z,823.18
2023-09-08T10:23:08.233Z,823.17
2023-09-08T10:24:08.251Z,823.16
2023-09-08T10:25:08.289Z,823.15
2023-09-08T10:26:08.290Z,823.19
2023-09-08T10:27:08.322Z,823.19
2023-09-08T10:28:08.339Z,823.16
2023-09-08T10:29:08.361Z,823.16
2023-09-08T10:30:08.372Z,823.16
2023-09-08T10:31:08.437Z,823.16
2023-09-08T10:32:08.423Z,823.14
2023-09-08T10:33:08.505Z,823.15
2023-09-08T10:34:08.472Z,823.14
2023-09-08T10:35:08.479Z,823.19
2023-09-08T10:36:08.506Z,823.19
2023-09-08T10:37:08.585Z,823.11
2023-09-08T10:38:08.536Z,823.14
2023-09-08T10:39:08.597Z,823.14
2023-09-08T10:40:08.598Z,823.15
2023-09-08T10:41:08.621Z,823.12
2023-09-08T10:42:08.629Z,823.13
2023-09-08T10:43:08.652Z,823.09
2023-09-08T10:44:08.716Z,823.12
2023-09-08T10:45:08.682Z,823.10
2023-09-08T10:46:08.766Z,823.09
2023-09-08T10:47:08.722Z,823.09
2023-09-08T10:48:08.782Z,823.10
2023-09-08T10:49:09.013Z,823.09
2023-09-08T10:50:08.782Z,823.02
2023-09-08T10:51:08.804Z,823.01
2023-09-08T10:52:08.874Z,823.03
2023-09-08T10:53:08.850Z,822.97
2023-09-08T10:54:08.868Z,822.98
2023-09-08T10:55:08.916Z,822.98
2023-09-08T10:56:18.659Z,823.00
2023-09-08T10:57:09.017Z,823.01
2023-09-08T10:58:08.962Z,823.03
2023-09-08T10:59:08.995Z,823.04
2023-09-08T11:00:08.997Z,823.01
2023-09-08T11:01:09.020Z,823.00
2023-09-08T11:02:09.073Z,822.95
2023-09-08T11:03:09.197Z,823.04
2023-09-08T11:04:09.238Z,823.04
2023-09-08T11:05:09.119Z,823.07
2023-09-08T11:06:09.170Z,823.01
2023-09-08T11:07:09.160Z,823.03
2023-09-08T11:08:09.172Z,823.00
2023-09-08T11:09:09.347Z,823.03
2023-09-08T11:10:09.220Z,822.99
2023-09-08T11:11:09.232Z,823.00
2023-09-08T11:12:09.297Z,823.03
2023-09-08T11:13:09.309Z,823.02
2023-09-08T11:14:09.313Z,823.02
2023-09-08T11:15:09.356Z,823.02
2023-09-08T11:16:09.384Z,822.98
2023-09-08T11:17:09.369Z,822.98
2023-09-08T11:18:09.468Z,822.97
2023-09-08T11:19:09.408Z,822.99
2023-09-08T11:20:09.436Z,823.01
2023-09-08T11:21:09.464Z,822.99
2023-09-08T11:22:09.481Z,823.00
2023-09-08T11:23:09.500Z,822.98
2023-09-08T11:24:09.523Z,823.01
2023-09-08T11:25:09.574Z,822.98
2023-09-08T11:26:09.567Z,823.01
2023-09-08T11:27:09.591Z,823.04
2023-09-08T11:28:09.647Z,822.97
2023-09-08T11:29:09.654Z,823.00
2023-09-08T11:30:09.657Z,823.01
2023-09-08T11:31:09.709Z,823.01
2023-09-08T11:32:09.703Z,822.97
2023-09-08T11:33:09.749Z,822.99
2023-09-08T11:34:09.784Z,822.98
2023-09-08T11:35:09.770Z,822.99
2023-09-08T11:36:09.800Z,823.02
2023-09-08T11:37:09.881Z,823.04
2023-09-08T11:38:09.842Z,823.02
2023-09-08T11:39:09.862Z,823.02
2023-09-08T11:40:09.905Z,823.04
2023-09-08T11:41:09.910Z,823.03
2023-09-08T11:42:09.939Z,823.05
2023-09-08T11:43:10.002Z,823.04
2023-09-08T11:44:10.067Z,823.01
2023-09-08T11:45:10.018Z,823.03
2023-09-08T11:46:10.084Z,823.03
2023-09-08T11:47:10.231Z,823.03
2023-09-08T11:48:10.093Z,823.00
2023-09-08T11:49:10.153Z,822.98
2023-09-08T11:50:10.216Z,823.05
2023-09-08T11:51:10.214Z,823.04
2023-09-08T11:52:10.191Z,823.04
2023-09-08T11:53:10.186Z,823.04
2023-09-08T11:54:10.210Z,823.03
2023-09-08T11:55:10.234Z,823.05
2023-09-08T11:56:10.260Z,823.04
2023-09-08T11:57:10.283Z,823.06
2023-09-08T11:58:10.316Z,822.98
2023-09-08T11:59:10.410Z,823.02
2023-09-08T12:00:10.356Z,823.01
2023-09-08T12:01:10.406Z,823.05
2023-09-08T12:02:10.419Z,823.03
2023-09-08T12:03:10.458Z,823.04
2023-09-08T12:04:10.466Z,823.03
2023-09-08T12:05:10.469Z,823.05
2023-09-08T12:06:10.498Z,823.03
2023-09-08T12:07:10.574Z,823.02
2023-09-08T12:08:10.567Z,823.03
2023-09-08T12:09:10.567Z,822.99
2023-09-08T12:10:10.618Z,822.96
2023-09-08T12:11:10.609Z,822.95
2023-09-08T12:12:10.632Z,822.96
2023-09-08T12:13:10.712Z,822.90
2023-09-08T12:14:10.681Z,822.95
2023-09-08T12:15:10.709Z,822.93
2023-09-08T12:16:10.782Z,822.97
2023-09-08T12:17:10.802Z,822.96
2023-09-08T12:18:10.885Z,822.99
2023-09-08T12:19:10.833Z,822.96
2023-09-08T12:20:10.820Z,822.93
2023-09-08T12:21:10.856Z,822.95
2023-09-08T12:22:10.894Z,822.94
2023-09-08T12:23:10.893Z,823.00
2023-09-08T12:24:10.943Z,822.98
2023-09-08T12:25:10.940Z,822.94
2023-09-08T12:26:10.961Z,822.97
2023-09-08T12:27:11.014Z,823.00
2023-09-08T12:28:11.046Z,823.03
2023-09-08T12:29:11.033Z,822.94